createdAt,value
2023-03-04T00:02:10.317Z,27.17
2023-03-04T00:04:37.601Z,27.83
2023-03-04T00:07:04.842Z,26.93
2023-03-04T00:09:32.282Z,28.63
2023-03-04T00:12:00.060Z,27.47
2023-03-04T00:14:29.988Z,27.53
2023-03-04T00:16:57.779Z,28.63
2023-03-04T00:19:25.378Z,27.87
2023-03-04T00:21:52.775Z,27.50
2023-03-04T00:24:20.088Z,27.30
2023-03-04T00:26:47.551Z,28.00
2023-03-04T00:29:14.823Z,29.23
2023-03-04T00:31:43.328Z,28.67
2023-03-04T00:34:10.669Z,27.83
2023-03-04T00:36:38.497Z,27.90
2023-03-04T00:39:06.108Z,27.07
2023-03-04T00:41:33.501Z,28.40
2023-03-04T00:44:00.920Z,28.23
2023-03-04T00:46:28.313Z,28.90
2023-03-04T00:48:55.637Z,28.13
2023-03-04T00:51:22.972Z,27.97
2023-03-04T00:53:52.356Z,27.90
2023-03-04T00:56:19.740Z,28.40
2023-03-04T00:58:47.406Z,28.30
2023-03-04T01:01:14.742Z,29.20
2023-03-04T01:03:42.496Z,29.23
2023-03-04T01:06:11.503Z,28.90
2023-03-04T01:08:39.595Z,29.17
2023-03-04T01:11:07.388Z,29.53
2023-03-04T01:13:35.183Z,28.23
2023-03-04T01:16:03.589Z,29.00
2023-03-04T01:18:31.285Z,30.47
2023-03-04T01:20:58.861Z,32.50
2023-03-04T01:23:26.244Z,32.43
2023-03-04T01:25:53.959Z,32.60
2023-03-04T01:28:21.430Z,34.63
2023-03-04T01:30:48.823Z,33.00
2023-03-04T01:33:16.141Z,31.00
2023-03-04T01:35:43.426Z,30.13
2023-03-04T01:38:11.169Z,29.00
2023-03-04T01:40:39.175Z,30.53
2023-03-04T01:43:06.976Z,29.53
2023-03-04T01:45:35.698Z,30.90
2023-03-04T01:48:03.213Z,30.60
2023-03-04T01:50:34.507Z,30.10
2023-03-04T01:53:05.021Z,29.63
2023-03-04T01:55:32.810Z,29.77
2023-03-04T01:58:00.863Z,31.27
2023-03-04T02:00:31.126Z,31.13
2023-03-04T02:03:02.168Z,32.00
2023-03-04T02:05:30.400Z,31.07
2023-03-04T02:07:59.667Z,30.13
2023-03-04T02:10:27.919Z,28.90
2023-03-04T02:12:55.435Z,28.10
2023-03-04T02:15:24.555Z,31.83
2023-03-04T02:17:52.814Z,29.83
2023-03-04T02:20:51.408Z,29.10
2023-03-04T02:23:46.713Z,28.97
2023-03-04T02:26:17.032Z,27.93
2023-03-04T02:28:45.770Z,27.90
2023-03-04T02:31:31.644Z,24.43
2023-03-04T02:34:02.047Z,24.63
2023-03-04T02:36:29.830Z,23.10
2023-03-04T02:39:11.758Z,22.70
2023-03-04T02:41:39.672Z,20.53
2023-03-04T02:44:18.309Z,20.50
2023-03-04T02:46:46.543Z,21.20
2023-03-04T02:49:14.138Z,21.23
2023-03-04T02:51:41.553Z,21.17
2023-03-04T02:54:18.309Z,22.13
2023-03-04T02:56:51.721Z,21.73
2023-03-04T02:59:20.848Z,23.27
2023-03-04T03:01:49.004Z,23.73
2023-03-04T03:04:16.417Z,22.80
2023-03-04T03:06:45.747Z,23.37
2023-03-04T03:09:13.500Z,22.53
2023-03-04T03:11:41.284Z,23.07
2023-03-04T03:14:09.520Z,21.90
2023-03-04T03:16:37.161Z,22.23
2023-03-04T03:19:05.943Z,21.30
2023-03-04T03:21:33.870Z,22.17
2023-03-04T03:24:01.163Z,22.70
2023-03-04T03:26:29.664Z,22.80
2023-03-04T03:28:56.956Z,22.53
2023-03-04T03:31:24.502Z,24.60
2023-03-04T03:33:51.944Z,26.27
2023-03-04T03:36:19.247Z,25.63
2023-03-04T03:38:46.540Z,24.47
2023-03-04T03:41:13.828Z,25.13
2023-03-04T03:43:41.402Z,24.67
2023-03-04T03:46:08.892Z,29.70
2023-03-04T03:48:36.269Z,24.17
2023-03-04T03:51:03.861Z,26.97
2023-03-04T03:53:31.099Z,23.70
2023-03-04T03:55:59.072Z,23.27
2023-03-04T03:58:26.992Z,23.43
2023-03-04T04:00:56.488Z,23.07
2023-03-04T04:03:25.652Z,22.53
2023-03-04T04:05:53.224Z,23.77
2023-03-04T04:08:20.484Z,23.27
2023-03-04T04:10:48.189Z,23.73
2023-03-04T04:13:15.404Z,22.83
2023-03-04T04:15:42.866Z,23.30
2023-03-04T04:18:10.238Z,23.07
2023-03-04T04:20:37.614Z,23.20
2023-03-04T04:23:05.167Z,22.57
2023-03-04T04:25:32.427Z,24.23
2023-03-04T04:27:59.708Z,23.37
2023-03-04T04:30:27.193Z,23.87
2023-03-04T04:32:54.617Z,24.33
2023-03-04T04:35:21.926Z,23.43
2023-03-04T04:37:49.188Z,25.07
2023-03-04T04:40:16.925Z,23.77
2023-03-04T04:42:44.293Z,25.60
2023-03-04T04:45:11.704Z,24.50
2023-03-04T04:47:39.173Z,24.20
2023-03-04T04:50:07.095Z,25.53
2023-03-04T04:52:34.484Z,24.07
2023-03-04T04:55:02.310Z,24.87
2023-03-04T04:57:29.563Z,46.67
2023-03-04T04:59:56.853Z,40.03
2023-03-04T05:02:24.216Z,27.23
2023-03-04T05:04:51.622Z,24.40
2023-03-04T05:07:19.097Z,25.53
2023-03-04T05:09:46.474Z,23.30
2023-03-04T05:12:13.866Z,23.33
2023-03-04T05:14:41.273Z,23.33
2023-03-04T05:17:08.703Z,22.07
2023-03-04T05:19:35.943Z,21.83
2023-03-04T05:22:03.641Z,23.13
2023-03-04T05:24:31.271Z,22.17
2023-03-04T05:26:58.562Z,23.60
2023-03-04T05:29:25.986Z,23.73
2023-03-04T05:31:53.412Z,23.37
2023-03-04T05:34:20.786Z,23.93
2023-03-04T05:36:48.031Z,22.90
2023-03-04T05:39:15.403Z,22.40
2023-03-04T05:41:42.700Z,22.97
2023-03-04T05:44:09.962Z,23.97
2023-03-04T05:46:37.379Z,24.10
2023-03-04T05:49:04.838Z,24.10
2023-03-04T05:51:32.149Z,24.00
2023-03-04T05:53:59.563Z,23.70
2023-03-04T05:56:27.013Z,23.77
2023-03-04T05:58:57.989Z,25.03
2023-03-04T06:01:25.925Z,23.53
2023-03-04T06:03:53.195Z,23.57
2023-03-04T06:06:20.616Z,24.27
2023-03-04T06:08:47.948Z,25.50
2023-03-04T06:11:15.243Z,23.00
2023-03-04T06:13:42.584Z,24.80
2023-03-04T06:16:10.471Z,23.40
2023-03-04T06:18:37.969Z,22.13
2023-03-04T06:21:05.550Z,23.53
2023-03-04T06:23:32.989Z,23.60
2023-03-04T06:26:01.896Z,23.97
2023-03-04T06:28:29.910Z,24.07
2023-03-04T06:30:58.527Z,25.53
2023-03-04T06:33:26.350Z,24.57
2023-03-04T06:35:55.772Z,24.70
2023-03-04T06:38:23.524Z,24.50
2023-03-04T06:40:51.187Z,23.73
2023-03-04T06:43:19.322Z,23.63
2023-03-04T06:45:47.283Z,23.40
2023-03-04T06:48:14.905Z,24.37
2023-03-04T06:50:42.230Z,23.10
2023-03-04T06:53:09.512Z,37.67
2023-03-04T06:55:36.775Z,30.50
2023-03-04T06:58:04.027Z,26.33
2023-03-04T07:00:31.392Z,25.70
2023-03-04T07:02:59.503Z,25.37
2023-03-04T07:05:27.059Z,25.30
2023-03-04T07:07:54.335Z,25.70
2023-03-04T07:10:21.744Z,26.47
2023-03-04T07:12:49.060Z,27.00
2023-03-04T07:15:16.534Z,24.80
2023-03-04T07:17:43.886Z,26.03
2023-03-04T07:20:11.789Z,25.93
2023-03-04T07:22:39.195Z,27.50
2023-03-04T07:25:07.158Z,26.07
2023-03-04T07:27:34.682Z,26.97
2023-03-04T07:30:02.911Z,26.90
2023-03-04T07:32:30.652Z,27.37
2023-03-04T07:34:58.054Z,26.07
2023-03-04T07:37:25.604Z,28.50
2023-03-04T07:39:52.830Z,28.40
2023-03-04T07:42:20.061Z,29.00
2023-03-04T07:44:55.407Z,28.43
2023-03-04T07:47:22.702Z,28.73
2023-03-04T07:49:50.352Z,29.70
2023-03-04T07:52:17.660Z,30.00
2023-03-04T07:54:45.012Z,31.13
2023-03-04T07:57:12.885Z,30.47
2023-03-04T07:59:40.134Z,30.83
2023-03-04T08:02:07.709Z,30.67
2023-03-04T08:04:35.034Z,32.10
2023-03-04T08:07:02.381Z,31.00
2023-03-04T08:09:30.200Z,30.87
2023-03-04T08:11:57.559Z,31.63
2023-03-04T08:14:24.950Z,31.97
2023-03-04T08:16:52.327Z,31.07
2023-03-04T08:19:19.587Z,32.00
2023-03-04T08:21:46.982Z,33.20
2023-03-04T08:24:16.090Z,33.87
2023-03-04T08:26:46.762Z,34.00
2023-03-04T08:29:21.143Z,33.17
2023-03-04T08:31:50.074Z,34.07
2023-03-04T08:34:19.524Z,32.77
2023-03-04T08:36:46.780Z,34.27
2023-03-04T08:39:16.008Z,33.43
2023-03-04T08:41:50.248Z,33.17
2023-03-04T08:44:18.062Z,32.33
2023-03-04T08:46:45.347Z,32.63
2023-03-04T08:49:13.058Z,32.53
2023-03-04T08:51:40.673Z,29.63
2023-03-04T08:54:07.979Z,28.83
2023-03-04T08:56:35.206Z,27.63
2023-03-04T08:59:02.501Z,29.30
2023-03-04T09:01:29.777Z,27.43
2023-03-04T09:03:57.075Z,26.97
2023-03-04T09:06:24.357Z,26.50
2023-03-04T09:08:51.748Z,26.50
2023-03-04T09:11:19.106Z,27.23
2023-03-04T09:13:46.755Z,25.93
2023-03-04T09:16:15.635Z,25.53
2023-03-04T09:18:43.159Z,23.33
2023-03-04T09:21:11.351Z,23.47
2023-03-04T09:23:39.258Z,23.27
2023-03-04T09:26:24.812Z,21.63
2023-03-04T09:28:54.316Z,23.07
2023-03-04T09:31:22.597Z,23.17
2023-03-04T09:33:51.224Z,25.13
2023-03-04T09:36:18.960Z,24.83
2023-03-04T09:38:46.370Z,24.70
2023-03-04T09:41:36.874Z,26.00
2023-03-04T09:44:28.145Z,25.57
2023-03-04T09:47:02.450Z,28.20
2023-03-04T09:49:30.809Z,27.97
2023-03-04T09:52:03.766Z,29.17
2023-03-04T09:54:37.430Z,27.30
2023-03-04T09:57:42.873Z,29.97
2023-03-04T10:00:20.784Z,29.13
2023-03-04T10:03:16.553Z,26.67
2023-03-04T10:06:07.230Z,28.20
2023-03-04T10:09:01.426Z,28.87
2023-03-04T10:11:44.444Z,26.97
2023-03-04T10:14:32.840Z,26.57
2023-03-04T10:17:09.188Z,25.43
2023-03-04T10:19:52.769Z,26.00
2023-03-04T10:22:35.101Z,26.27
2023-03-04T10:25:26.528Z,28.47
2023-03-04T10:27:58.778Z,25.70
2023-03-04T10:30:48.148Z,26.03
2023-03-04T10:33:18.224Z,25.87
2023-03-04T10:35:50.749Z,26.83
2023-03-04T10:38:21.254Z,24.23
2023-03-04T10:40:48.995Z,26.40
2023-03-04T10:43:21.219Z,24.40
2023-03-04T10:45:49.209Z,25.07
2023-03-04T10:48:22.493Z,24.33
2023-03-04T10:50:49.985Z,22.90
2023-03-04T10:53:33.600Z,22.07
2023-03-04T10:56:01.106Z,23.43
2023-03-04T10:58:28.772Z,21.90
2023-03-04T11:01:06.713Z,25.20
2023-03-04T11:03:36.063Z,21.47
2023-03-04T11:06:27.432Z,21.90
2023-03-04T11:08:59.649Z,21.37
2023-03-04T11:11:34.509Z,21.17
2023-03-04T11:14:10.981Z,22.10
2023-03-04T11:16:41.120Z,22.13
2023-03-04T11:19:16.668Z,19.50
2023-03-04T11:21:45.651Z,19.97
2023-03-04T11:24:27.650Z,19.07
2023-03-04T11:27:05.534Z,19.33
2023-03-04T11:29:42.200Z,17.23
2023-03-04T11:32:18.428Z,16.67
2023-03-04T11:34:54.716Z,18.13
2023-03-04T11:37:47.984Z,17.83
2023-03-04T11:40:29.941Z,16.27
2023-03-04T11:43:25.148Z,17.43
2023-03-04T11:46:31.597Z,16.00
2023-03-04T11:48:59.757Z,16.70
2023-03-04T11:51:45.834Z,16.20
2023-03-04T11:54:25.592Z,15.90
2023-03-04T11:57:06.073Z,17.07
2023-03-04T11:59:39.146Z,15.97
2023-03-04T12:02:19.650Z,15.90
2023-03-04T12:05:16.000Z,16.03
2023-03-04T12:07:46.294Z,14.77
2023-03-04T12:10:19.438Z,13.03
2023-03-04T12:13:07.356Z,13.37
2023-03-04T12:15:54.073Z,12.30
2023-03-04T12:18:44.967Z,12.30
2023-03-04T12:21:34.432Z,13.17
2023-03-04T12:24:27.965Z,12.33
2023-03-04T12:27:18.133Z,13.33
2023-03-04T12:30:05.775Z,15.10
2023-03-04T12:33:07.519Z,15.70
2023-03-04T12:35:45.957Z,15.37
2023-03-04T12:38:16.222Z,15.10
2023-03-04T12:41:03.849Z,15.47
2023-03-04T12:43:41.625Z,15.90
2023-03-04T12:46:32.161Z,16.37
2023-03-04T12:49:14.572Z,17.03
2023-03-04T12:51:55.677Z,15.57
2023-03-04T12:54:29.418Z,16.90
2023-03-04T12:57:08.859Z,17.17
2023-03-04T12:59:52.350Z,16.70
2023-03-04T13:02:56.761Z,17.17
2023-03-04T13:06:00.796Z,15.40
2023-03-04T13:08:49.815Z,15.80
2023-03-04T13:11:26.282Z,16.00
2023-03-04T13:14:15.062Z,16.97
2023-03-04T13:16:46.057Z,16.43
2023-03-04T13:19:46.240Z,15.67
2023-03-04T13:22:44.931Z,15.63
2023-03-04T13:25:31.174Z,15.53
2023-03-04T13:28:10.021Z,15.87
2023-03-04T13:30:40.144Z,15.87
2023-03-04T13:33:16.533Z,15.87
2023-03-04T13:35:47.146Z,15.93
2023-03-04T13:38:28.379Z,16.23
2023-03-04T13:41:16.307Z,15.07
2023-03-04T13:43:45.946Z,14.87
2023-03-04T13:46:20.247Z,15.17
2023-03-04T13:48:50.891Z,15.37
2023-03-04T13:51:44.100Z,14.67
2023-03-04T13:54:29.670Z,13.63
2023-03-04T13:57:18.001Z,13.20
2023-03-04T13:59:53.233Z,14.63
2023-03-04T14:02:26.187Z,12.93
2023-03-04T14:04:53.431Z,13.97
2023-03-04T14:07:29.859Z,14.10
2023-03-04T14:10:24.842Z,12.87
2023-03-04T14:12:56.686Z,13.03
2023-03-04T14:15:30.160Z,12.37
2023-03-04T14:18:03.187Z,12.47
2023-03-04T14:20:35.513Z,12.67
2023-03-04T14:23:22.175Z,12.33
2023-03-04T14:25:49.464Z,12.93
2023-03-04T14:28:19.725Z,13.93
2023-03-04T14:30:55.485Z,11.70
2023-03-04T14:33:26.219Z,14.07
2023-03-04T14:36:02.994Z,13.67
2023-03-04T14:38:38.184Z,13.90
2023-03-04T14:41:09.073Z,12.63
2023-03-04T14:43:50.808Z,13.57
2023-03-04T14:46:19.851Z,14.37
2023-03-04T14:48:52.556Z,22.23
2023-03-04T14:51:33.110Z,14.23
2023-03-04T14:54:00.499Z,13.83
2023-03-04T14:56:34.241Z,14.93
2023-03-04T14:59:01.687Z,15.13
2023-03-04T15:01:36.165Z,15.43
2023-03-04T15:04:08.201Z,14.87
2023-03-04T15:06:38.666Z,14.77
2023-03-04T15:09:18.275Z,13.73
2023-03-04T15:11:50.250Z,14.77
2023-03-04T15:14:41.273Z,15.40
2023-03-04T15:17:27.541Z,18.63
2023-03-04T15:20:19.908Z,19.33
2023-03-04T15:22:53.229Z,18.83
2023-03-04T15:25:21.045Z,19.10
2023-03-04T15:27:50.245Z,20.37
2023-03-04T15:30:29.795Z,18.83
2023-03-04T15:32:58.154Z,18.93
2023-03-04T15:35:29.108Z,18.20
2023-03-04T15:37:57.874Z,19.07
2023-03-04T15:40:32.175Z,19.57
2023-03-04T15:43:02.430Z,19.03
2023-03-04T15:45:36.917Z,17.93
2023-03-04T15:48:08.006Z,18.03
2023-03-04T15:50:37.728Z,18.00
2023-03-04T15:53:08.385Z,18.33
2023-03-04T15:55:36.208Z,17.50
2023-03-04T15:58:04.395Z,17.67
2023-03-04T16:00:32.138Z,17.23
2023-03-04T16:02:59.689Z,18.03
2023-03-04T16:05:27.157Z,18.20
2023-03-04T16:07:54.498Z,17.27
2023-03-04T16:10:26.772Z,16.33
2023-03-04T16:12:54.894Z,17.40
2023-03-04T16:15:30.244Z,17.13
2023-03-04T16:17:58.174Z,17.37
2023-03-04T16:20:29.060Z,16.60
2023-03-04T16:22:59.618Z,16.60
2023-03-04T16:25:28.184Z,16.73
2023-03-04T16:28:04.776Z,22.70
2023-03-04T16:30:32.591Z,34.90
2023-03-04T16:32:59.852Z,36.73
2023-03-04T16:35:29.136Z,16.97
2023-03-04T16:37:56.892Z,16.10
2023-03-04T16:40:27.714Z,15.70
2023-03-04T16:42:55.740Z,16.10
2023-03-04T16:45:26.816Z,16.00
2023-03-04T16:47:54.180Z,15.27
2023-03-04T16:50:27.080Z,15.40
2023-03-04T16:52:56.145Z,15.77
2023-03-04T16:55:28.709Z,14.97
2023-03-04T16:57:57.869Z,14.80
2023-03-04T17:00:28.868Z,15.30
2023-03-04T17:02:58.833Z,14.27
2023-03-04T17:05:29.587Z,14.17
2023-03-04T17:07:56.971Z,14.60
2023-03-04T17:10:25.476Z,14.33
2023-03-04T17:12:53.219Z,14.20
2023-03-04T17:15:20.854Z,14.30
2023-03-04T17:17:48.277Z,14.70
2023-03-04T17:20:19.220Z,13.67
2023-03-04T17:22:46.577Z,13.37
2023-03-04T17:25:14.978Z,13.50
2023-03-04T17:27:42.916Z,12.50
2023-03-04T17:30:13.363Z,12.47
2023-03-04T17:32:40.928Z,12.57
2023-03-04T17:35:09.707Z,10.57
2023-03-04T17:37:37.845Z,11.97
2023-03-04T17:40:08.695Z,11.40
2023-03-04T17:42:36.662Z,11.07
2023-03-04T17:45:04.318Z,10.67
2023-03-04T17:47:31.798Z,11.30
2023-03-04T17:49:59.238Z,11.03
2023-03-04T17:52:26.628Z,11.07
2023-03-04T17:54:54.158Z,10.53
2023-03-04T17:57:21.904Z,10.67
2023-03-04T17:59:49.796Z,11.13
2023-03-04T18:02:17.404Z,10.57
2023-03-04T18:04:48.919Z,10.23
2023-03-04T18:07:16.448Z,9.97
2023-03-04T18:09:44.847Z,8.90
2023-03-04T18:12:12.256Z,9.30
2023-03-04T18:14:39.859Z,9.63
2023-03-04T18:17:07.221Z,9.63
2023-03-04T18:19:37.446Z,10.63
2023-03-04T18:22:04.776Z,10.20
2023-03-04T18:24:32.160Z,9.47
2023-03-04T18:26:59.502Z,10.13
2023-03-04T18:29:27.493Z,9.40
2023-03-04T18:31:57.222Z,8.43
2023-03-04T18:34:24.744Z,9.13
2023-03-04T18:36:52.918Z,8.63
2023-03-04T18:39:20.339Z,8.83
2023-03-04T18:41:47.921Z,8.27
2023-03-04T18:44:15.450Z,8.30
2023-03-04T18:46:50.593Z,8.73
2023-03-04T18:49:20.078Z,8.30
2023-03-04T18:51:47.474Z,8.80
2023-03-04T18:54:16.401Z,9.10
2023-03-04T18:56:51.845Z,8.07
2023-03-04T18:59:31.573Z,8.83
2023-03-04T19:02:02.415Z,9.10
2023-03-04T19:04:30.832Z,9.83
2023-03-04T19:07:00.437Z,9.23
2023-03-04T19:09:27.939Z,9.23
2023-03-04T19:11:55.337Z,10.33
2023-03-04T19:14:23.008Z,8.43
2023-03-04T19:16:50.264Z,9.77
2023-03-04T19:19:17.583Z,10.80
2023-03-04T19:21:45.078Z,10.63
2023-03-04T19:24:12.430Z,10.70
2023-03-04T19:26:40.258Z,11.47
2023-03-04T19:29:07.904Z,11.00
2023-03-04T19:31:41.082Z,10.03
2023-03-04T19:34:09.516Z,10.10
2023-03-04T19:36:37.026Z,9.63
2023-03-04T19:39:04.825Z,10.00
2023-03-04T19:41:32.326Z,9.63
2023-03-04T19:44:00.200Z,9.57
2023-03-04T19:46:28.764Z,9.20
2023-03-04T19:48:56.173Z,9.00
2023-03-04T19:51:29.241Z,9.10
2023-03-04T19:53:56.767Z,9.93
2023-03-04T19:56:24.191Z,9.53
2023-03-04T19:58:55.805Z,8.13
2023-03-04T20:01:37.282Z,8.70
2023-03-04T20:04:08.735Z,9.13
2023-03-04T20:06:45.090Z,7.97
2023-03-04T20:09:14.218Z,8.90
2023-03-04T20:11:56.632Z,8.70
2023-03-04T20:14:30.622Z,8.13
2023-03-04T20:17:01.177Z,8.70
2023-03-04T20:19:33.636Z,7.80
2023-03-04T20:22:01.657Z,8.87
2023-03-04T20:24:29.180Z,8.03
2023-03-04T20:26:56.597Z,8.37
2023-03-04T20:29:28.988Z,7.17
2023-03-04T20:31:56.481Z,7.90
2023-03-04T20:34:25.563Z,7.23
2023-03-04T20:36:53.234Z,8.33
2023-03-04T20:39:29.811Z,8.43
2023-03-04T20:41:59.013Z,7.43
2023-03-04T20:44:27.225Z,8.10
2023-03-04T20:46:54.507Z,7.63
2023-03-04T20:49:25.265Z,8.00
2023-03-04T20:52:02.736Z,7.07
2023-03-04T20:54:30.289Z,6.77
2023-03-04T20:56:57.996Z,7.63
2023-03-04T20:59:25.685Z,6.93
2023-03-04T21:01:53.658Z,7.33
2023-03-04T21:04:21.310Z,7.90
2023-03-04T21:06:50.965Z,7.10
2023-03-04T21:09:20.564Z,7.40
2023-03-04T21:11:49.585Z,8.10
2023-03-04T21:14:24.598Z,8.73
2023-03-04T21:16:54.666Z,8.23
2023-03-04T21:19:30.894Z,8.23
2023-03-04T21:21:59.560Z,9.80
2023-03-04T21:24:29.524Z,9.90
2023-03-04T21:26:57.576Z,10.33
2023-03-04T21:29:27.993Z,10.90
2023-03-04T21:32:16.899Z,11.20
2023-03-04T21:34:51.822Z,11.03
2023-03-04T21:37:20.469Z,11.30
2023-03-04T21:39:48.078Z,10.73
2023-03-04T21:42:15.387Z,11.20
2023-03-04T21:44:49.674Z,12.17
2023-03-04T21:47:19.479Z,11.67
2023-03-04T21:49:47.128Z,11.50
2023-03-04T21:52:14.635Z,11.23
2023-03-04T21:54:42.024Z,10.80
2023-03-04T21:57:09.432Z,11.20
2023-03-04T21:59:38.458Z,12.07
2023-03-04T22:02:06.894Z,11.47
2023-03-04T22:04:34.302Z,12.00
2023-03-04T22:07:02.117Z,11.93
2023-03-04T22:09:29.443Z,11.50
2023-03-04T22:11:56.710Z,11.53
2023-03-04T22:14:24.089Z,11.17
2023-03-04T22:16:56.019Z,11.63
2023-03-04T22:19:25.241Z,12.13
2023-03-04T22:21:52.999Z,11.13
2023-03-04T22:24:21.062Z,11.73
2023-03-04T22:26:48.521Z,12.00
2023-03-04T22:29:15.800Z,12.10
2023-03-04T22:31:43.197Z,12.37
2023-03-04T22:34:13.769Z,12.07
2023-03-04T22:36:44.372Z,11.60
2023-03-04T22:39:13.778Z,12.93
2023-03-04T22:41:41.469Z,12.30
2023-03-04T22:44:08.961Z,12.27
2023-03-04T22:46:38.540Z,12.10
2023-03-04T22:49:10.142Z,11.90
2023-03-04T22:51:41.233Z,12.33
2023-03-04T22:54:11.619Z,13.77
2023-03-04T22:56:39.263Z,12.67
2023-03-04T22:59:06.750Z,12.80
2023-03-04T23:01:34.638Z,12.50
2023-03-04T23:04:02.283Z,13.03
2023-03-04T23:06:31.555Z,13.43
2023-03-04T23:08:59.666Z,12.50
2023-03-04T23:11:30.591Z,13.43
2023-03-04T23:13:59.234Z,13.73
2023-03-04T23:16:28.470Z,13.47
2023-03-04T23:18:58.188Z,13.03
2023-03-04T23:21:34.001Z,13.13
2023-03-04T23:24:02.524Z,13.47
2023-03-04T23:26:32.965Z,13.03
2023-03-04T23:29:01.804Z,13.93
2023-03-04T23:31:30.637Z,13.43
2023-03-04T23:33:58.899Z,13.97
2023-03-04T23:36:28.931Z,13.50
2023-03-04T23:38:56.978Z,13.23
2023-03-04T23:41:28.576Z,13.07
2023-03-04T23:43:58.299Z,13.43
2023-03-04T23:46:26.912Z,12.47
2023-03-04T23:48:54.644Z,12.30
2023-03-04T23:51:24.846Z,13.00
2023-03-04T23:53:52.624Z,13.07
2023-03-04T23:56:22.743Z,13.07
2023-03-04T23:58:50.575Z,12.90
